sensor_id;sensor_type;location;lat;lon;timestamp;pressure;altitude;pressure_sealevel;temperature;humidity
71772;BME280;59606;52.138;5.424;2023-10-31T00:00:26;99716.34;;;9.88;100.00
71772;BME280;59606;52.138;5.424;2023-10-31T00:02:52;99727.72;;;9.87;100.00
71772;BME280;59606;52.138;5.424;2023-10-31T00:05:19;99727.78;;;9.85;100.00
71772;BME280;59606;52.138;5.424;2023-10-31T00:07:47;99727.91;;;9.84;100.00
71772;BME280;59606;52.138;5.424;2023-10-31T00:10:14;99733.13;;;9.84;100.00
71772;BME280;59606;52.138;5.424;2023-10-31T00:12:41;99730.72;;;9.81;100.00
71772;BME280;59606;52.138;5.424;2023-10-31T00:15:07;99721.38;;;9.78;100.00
71772;BME280;59606;52.138;5.424;2023-10-31T00:17:34;99724.78;;;9.79;100.00
71772;BME280;59606;52.138;5.424;2023-10-31T00:20:00;99724.69;;;9.80;100.00
71772;BME280;59606;52.138;5.424;2023-10-31T00:22:27;99732.50;;;9.80;100.00
71772;BME280;59606;52.138;5.424;2023-10-31T00:24:54;99731.88;;;9.77;100.00
71772;BME280;59606;52.138;5.424;2023-10-31T00:27:20;99733.53;;;9.78;100.00
71772;BME280;59606;52.138;5.424;2023-10-31T00:29:47;99736.97;;;9.78;100.00
71772;BME280;59606;52.138;5.424;2023-10-31T00:32:13;99747.50;;;9.77;100.00
71772;BME280;59606;52.138;5.424;2023-10-31T00:34:41;99744.88;;;9.77;100.00
71772;BME280;59606;52.138;5.424;2023-10-31T00:37:07;99739.69;;;9.77;100.00
71772;BME280;59606;52.138;5.424;2023-10-31T00:39:34;99740.72;;;9.74;100.00
71772;BME280;59606;52.138;5.424;2023-10-31T00:42:00;99738.00;;;9.76;100.00
71772;BME280;59606;52.138;5.424;2023-10-31T00:44:27;99736.25;;;9.76;100.00
71772;BME280;59606;52.138;5.424;2023-10-31T00:46:53;99742.28;;;9.77;100.00
71772;BME280;59606;52.138;5.424;2023-10-31T00:49:20;99741.47;;;9.76;100.00
71772;BME280;59606;52.138;5.424;2023-10-31T00:51:46;99742.59;;;9.72;100.00
71772;BME280;59606;52.138;5.424;2023-10-31T00:54:13;99746.03;;;9.73;100.00
71772;BME280;59606;52.138;5.424;2023-10-31T00:56:39;99752.06;;;9.73;100.00
71772;BME280;59606;52.138;5.424;2023-10-31T00:59:06;99749.47;;;9.73;100.00
71772;BME280;59606;52.138;5.424;2023-10-31T01:01:32;99757.38;;;9.72;100.00
71772;BME280;59606;52.138;5.424;2023-10-31T01:03:59;99765.16;;;9.72;100.00
71772;BME280;59606;52.138;5.424;2023-10-31T01:06:26;99766.94;;;9.71;100.00
71772;BME280;59606;52.138;5.424;2023-10-31T01:08:52;99766.13;;;9.71;100.00
71772;BME280;59606;52.138;5.424;2023-10-31T01:11:19;99769.53;;;9.71;100.00
71772;BME280;59606;52.138;5.424;2023-10-31T01:13:45;99771.31;;;9.71;100.00
71772;BME280;59606;52.138;5.424;2023-10-31T01:16:12;99779.00;;;9.72;100.00
71772;BME280;59606;52.138;5.424;2023-10-31T01:18:38;99778.16;;;9.72;100.00
71772;BME280;59606;52.138;5.424;2023-10-31T01:21:05;99776.53;;;9.71;100.00
71772;BME280;59606;52.138;5.424;2023-10-31T01:23:31;99779.00;;;9.72;100.00
71772;BME280;59606;52.138;5.424;2023-10-31T01:25:58;99784.41;;;9.69;100.00
71772;BME280;59606;52.138;5.424;2023-10-31T01:28:24;99788.69;;;9.70;100.00
71772;BME280;59606;52.138;5.424;2023-10-31T01:30:51;99792.13;;;9.71;100.00
71772;BME280;59606;52.138;5.424;2023-10-31T01:33:17;99795.53;;;9.71;100.00
71772;BME280;59606;52.138;5.424;2023-10-31T01:35:44;99796.28;;;9.73;100.00
71772;BME280;59606;52.138;5.424;2023-10-31T01:38:10;99796.28;;;9.73;100.00
71772;BME280;59606;52.138;5.424;2023-10-31T01:40:37;99798.78;;;9.75;100.00
71772;BME280;59606;52.138;5.424;2023-10-31T01:43:04;99806.50;;;9.76;100.00
71772;BME280;59606;52.138;5.424;2023-10-31T01:45:31;99805.63;;;9.76;100.00
71772;BME280;59606;52.138;5.424;2023-10-31T01:47:58;99802.94;;;9.77;100.00
71772;BME280;59606;52.138;5.424;2023-10-31T01:50:25;99802.13;;;9.77;100.00
71772;BME280;59606;52.138;5.424;2023-10-31T01:52:52;99802.81;;;9.79;100.00
71772;BME280;59606;52.138;5.424;2023-10-31T01:55:19;99804.38;;;9.81;100.00
71772;BME280;59606;52.138;5.424;2023-10-31T01:57:46;99800.22;;;9.79;100.00
71772;BME280;59606;52.138;5.424;2023-10-31T02:00:14;99799.31;;;9.80;100.00
71772;BME280;59606;52.138;5.424;2023-10-31T02:02:40;99798.25;;;9.82;100.00
71772;BME280;59606;52.138;5.424;2023-10-31T02:05:10;99796.59;;;9.81;100.00
71772;BME280;59606;52.138;5.424;2023-10-31T02:07:37;99796.59;;;9.81;100.00
71772;BME280;59606;52.138;5.424;2023-10-31T02:10:04;99793.16;;;9.81;100.00
71772;BME280;59606;52.138;5.424;2023-10-31T02:12:37;99794.81;;;9.82;100.00
71772;BME280;59606;52.138;5.424;2023-10-31T02:15:05;99800.84;;;9.82;100.00
71772;BME280;59606;52.138;5.424;2023-10-31T02:17:32;99803.44;;;9.82;100.00
71772;BME280;59606;52.138;5.424;2023-10-31T02:19:58;99797.19;;;9.85;100.00
71772;BME280;59606;52.138;5.424;2023-10-31T02:22:25;99803.22;;;9.85;100.00
71772;BME280;59606;52.138;5.424;2023-10-31T02:24:52;99803.22;;;9.85;100.00
71772;BME280;59606;52.138;5.424;2023-10-31T02:27:18;99795.44;;;9.85;100.00
71772;BME280;59606;52.138;5.424;2023-10-31T02:29:45;99798.03;;;9.85;100.00
71772;BME280;59606;52.138;5.424;2023-10-31T02:32:11;99796.38;;;9.84;100.00
71772;BME280;59606;52.138;5.424;2023-10-31T02:34:38;99805.00;;;9.85;100.00
71772;BME280;59606;52.138;5.424;2023-10-31T02:37:05;99798.03;;;9.85;100.00
71772;BME280;59606;52.138;5.424;2023-10-31T02:39:32;99798.03;;;9.85;100.00
71772;BME280;59606;52.138;5.424;2023-10-31T02:41:59;99808.44;;;9.85;100.00
71772;BME280;59606;52.138;5.424;2023-10-31T02:44:25;99805.00;;;9.85;100.00
71772;BME280;59606;52.138;5.424;2023-10-31T02:46:53;99811.03;;;9.85;100.00
71772;BME280;59606;52.138;5.424;2023-10-31T02:49:20;99813.63;;;9.85;100.00
71772;BME280;59606;52.138;5.424;2023-10-31T02:51:47;99813.63;;;9.85;100.00
71772;BME280;59606;52.138;5.424;2023-10-31T02:54:13;99817.09;;;9.86;100.00
71772;BME280;59606;52.138;5.424;2023-10-31T02:56:40;99825.72;;;9.86;100.00
71772;BME280;59606;52.138;5.424;2023-10-31T02:59:06;99820.53;;;9.86;100.00
71772;BME280;59606;52.138;5.424;2023-10-31T03:01:34;99828.34;;;9.86;100.00
71772;BME280;59606;52.138;5.424;2023-10-31T03:04:01;99825.72;;;9.86;100.00
71772;BME280;59606;52.138;5.424;2023-10-31T03:06:28;99824.03;;;9.85;100.00
71772;BME280;59606;52.138;5.424;2023-10-31T03:08:54;99831.84;;;9.85;100.00
71772;BME280;59606;52.138;5.424;2023-10-31T03:11:24;99831.97;;;9.84;100.00
71772;BME280;59606;52.138;5.424;2023-10-31T03:13:51;99831.03;;;9.85;100.00
71772;BME280;59606;52.138;5.424;2023-10-31T03:16:19;99840.59;;;9.84;100.00
71772;BME280;59606;52.138;5.424;2023-10-31T03:18:47;99840.59;;;9.84;100.00
71772;BME280;59606;52.138;5.424;2023-10-31T03:21:14;99842.38;;;9.84;100.00
71772;BME280;59606;52.138;5.424;2023-10-31T03:23:43;99848.41;;;9.84;100.00
71772;BME280;59606;52.138;5.424;2023-10-31T03:26:09;99855.25;;;9.85;100.00
71772;BME280;59606;52.138;5.424;2023-10-31T03:28:36;99861.31;;;9.86;100.00
71772;BME280;59606;52.138;5.424;2023-10-31T03:31:03;99860.47;;;9.85;100.00
71772;BME280;59606;52.138;5.424;2023-10-31T03:33:29;99869.97;;;9.86;100.00
71772;BME280;59606;52.138;5.424;2023-10-31T03:35:56;99874.22;;;9.87;100.00
71772;BME280;59606;52.138;5.424;2023-10-31T03:38:22;99882.03;;;9.87;100.00
71772;BME280;59606;52.138;5.424;2023-10-31T03:40:49;99882.84;;;9.88;100.00
71772;BME280;59606;52.138;5.424;2023-10-31T03:43:15;99890.78;;;9.86;100.00
71772;BME280;59606;52.138;5.424;2023-10-31T03:45:42;99894.19;;;9.87;100.00
71772;BME280;59606;52.138;5.424;2023-10-31T03:48:08;99895.16;;;9.86;100.00
71772;BME280;59606;52.138;5.424;2023-10-31T03:50:35;99903.78;;;9.86;100.00
71772;BME280;59606;52.138;5.424;2023-10-31T03:53:01;99908.16;;;9.86;100.00
71772;BME280;59606;52.138;5.424;2023-10-31T03:55:29;99914.28;;;9.85;100.00
71772;BME280;59606;52.138;5.424;2023-10-31T03:57:59;99914.19;;;9.86;100.00
71772;BME280;59606;52.138;5.424;2023-10-31T04:00:25;99925.41;;;9.87;100.00
71772;BME280;59606;52.138;5.424;2023-10-31T04:02:52;99926.38;;;9.86;100.00
71772;BME280;59606;52.138;5.424;2023-10-31T04:05:19;99934.16;;;9.86;100.00
71772;BME280;59606;52.138;5.424;2023-10-31T04:07:46;99934.25;;;9.84;100.00
71772;BME280;59606;52.138;5.424;2023-10-31T04:10:13;99936.03;;;9.84;100.00
71772;BME280;59606;52.138;5.424;2023-10-31T04:12:40;99927.47;;;9.82;100.00
71772;BME280;59606;52.138;5.424;2023-10-31T04:15:08;99928.41;;;9.81;100.00
71772;BME280;59606;52.138;5.424;2023-10-31T04:17:35;99932.78;;;9.80;100.00
71772;BME280;59606;52.138;5.424;2023-10-31T04:20:03;99939.84;;;9.78;100.00
71772;BME280;59606;52.138;5.424;2023-10-31T04:22:30;99947.78;;;9.77;100.00
71772;BME280;59606;52.138;5.424;2023-10-31T04:24:56;99943.47;;;9.76;100.00
71772;BME280;59606;52.138;5.424;2023-10-31T04:27:23;99943.59;;;9.74;100.00
71772;BME280;59606;52.138;5.424;2023-10-31T04:29:49;99951.50;;;9.73;100.00
71772;BME280;59606;52.138;5.424;2023-10-31T04:32:16;99950.66;;;9.72;100.00
71772;BME280;59606;52.138;5.424;2023-10-31T04:34:42;99952.44;;;9.72;100.00
71772;BME280;59606;52.138;5.424;2023-10-31T04:37:09;99953.25;;;9.72;100.00
71772;BME280;59606;52.138;5.424;2023-10-31T04:39:36;99953.38;;;9.71;100.00
71772;BME280;59606;52.138;5.424;2023-10-31T04:42:03;99953.44;;;9.69;100.00
71772;BME280;59606;52.138;5.424;2023-10-31T04:44:30;99960.34;;;9.70;100.00
71772;BME280;59606;52.138;5.424;2023-10-31T04:46:57;99961.16;;;9.71;100.00
71772;BME280;59606;52.138;5.424;2023-10-31T04:49:23;99958.56;;;9.71;100.00
71772;BME280;59606;52.138;5.424;2023-10-31T04:51:50;99958.66;;;9.69;100.00
71772;BME280;59606;52.138;5.424;2023-10-31T04:54:16;99966.47;;;9.69;100.00
71772;BME280;59606;52.138;5.424;2023-10-31T04:56:43;99962.31;;;9.66;100.00
71772;BME280;59606;52.138;5.424;2023-10-31T04:59:09;99961.56;;;9.64;100.00
71772;BME280;59606;52.138;5.424;2023-10-31T05:01:36;99960.72;;;9.64;100.00
71772;BME280;59606;52.138;5.424;2023-10-31T05:04:03;99959.06;;;9.63;100.00
71772;BME280;59606;52.138;5.424;2023-10-31T05:06:38;99960.84;;;9.62;100.00
71772;BME280;59606;52.138;5.424;2023-10-31T05:09:05;99963.53;;;9.61;100.00
71772;BME280;59606;52.138;5.424;2023-10-31T05:11:32;99964.56;;;9.58;100.00
71772;BME280;59606;52.138;5.424;2023-10-31T05:13:58;99977.38;;;9.61;100.00
71772;BME280;59606;52.138;5.424;2023-10-31T05:16:25;99981.94;;;9.58;100.00
71772;BME280;59606;52.138;5.424;2023-10-31T05:18:52;99987.25;;;9.56;100.00
71772;BME280;59606;52.138;5.424;2023-10-31T05:21:19;99996.81;;;9.56;100.00
71772;BME280;59606;52.138;5.424;2023-10-31T05:23:50;99990.88;;;9.54;100.00
71772;BME280;59606;52.138;5.424;2023-10-31T05:26:16;99993.56;;;9.52;100.00
71772;BME280;59606;52.138;5.424;2023-10-31T05:28:43;99988.47;;;9.51;100.00
71772;BME280;59606;52.138;5.424;2023-10-31T05:31:09;99990.22;;;9.50;100.00
71772;BME280;59606;52.138;5.424;2023-10-31T05:33:36;99992.19;;;9.47;100.00
71772;BME280;59606;52.138;5.424;2023-10-31T05:36:03;99995.00;;;9.43;100.00
71772;BME280;59606;52.138;5.424;2023-10-31T05:38:29;100000.19;;;9.43;100.00
71772;BME280;59606;52.138;5.424;2023-10-31T05:40:56;100013.25;;;9.42;100.00
71772;BME280;59606;52.138;5.424;2023-10-31T05:43:22;100017.56;;;9.43;100.00
71772;BME280;59606;52.138;5.424;2023-10-31T05:45:49;100011.41;;;9.44;100.00
71772;BME280;59606;52.138;5.424;2023-10-31T05:48:15;100021.94;;;9.42;100.00
71772;BME280;59606;52.138;5.424;2023-10-31T05:50:42;100022.84;;;9.41;100.00
71772;BME280;59606;52.138;5.424;2023-10-31T05:53:10;100018.59;;;9.40;100.00
71772;BME280;59606;52.138;5.424;2023-10-31T05:55:40;100024.72;;;9.39;100.00
71772;BME280;59606;52.138;5.424;2023-10-31T05:58:07;100017.84;;;9.38;100.00
71772;BME280;59606;52.138;5.424;2023-10-31T06:00:33;100028.34;;;9.37;100.00
71772;BME280;59606;52.138;5.424;2023-10-31T06:03:01;100028.34;;;9.37;100.00
71772;BME280;59606;52.138;5.424;2023-10-31T06:05:27;100029.28;;;9.36;100.00
71772;BME280;59606;52.138;5.424;2023-10-31T06:07:54;100031.03;;;9.35;100.00
71772;BME280;59606;52.138;5.424;2023-10-31T06:10:21;100034.56;;;9.34;100.00
71772;BME280;59606;52.138;5.424;2023-10-31T06:12:48;100039.69;;;9.36;100.00
71772;BME280;59606;52.138;5.424;2023-10-31T06:15:14;100034.66;;;9.33;100.00
71772;BME280;59606;52.138;5.424;2023-10-31T06:17:41;100039.88;;;9.33;100.00
71772;BME280;59606;52.138;5.424;2023-10-31T06:20:08;100048.50;;;9.33;100.00
71772;BME280;59606;52.138;5.424;2023-10-31T06:22:35;100046.72;;;9.34;100.00
71772;BME280;59606;52.138;5.424;2023-10-31T06:25:02;100047.66;;;9.33;100.00
71772;BME280;59606;52.138;5.424;2023-10-31T06:27:29;100048.56;;;9.32;100.00
71772;BME280;59606;52.138;5.424;2023-10-31T06:29:55;100047.75;;;9.31;100.00
71772;BME280;59606;52.138;5.424;2023-10-31T06:32:42;100063.34;;;9.31;100.00
71772;BME280;59606;52.138;5.424;2023-10-31T06:35:08;100063.34;;;9.31;100.00
71772;BME280;59606;52.138;5.424;2023-10-31T06:37:35;100057.22;;;9.32;100.00
71772;BME280;59606;52.138;5.424;2023-10-31T06:40:06;100057.31;;;9.31;100.00
71772;BME280;59606;52.138;5.424;2023-10-31T06:42:32;100057.31;;;9.31;100.00
71772;BME280;59606;52.138;5.424;2023-10-31T06:44:59;100071.13;;;9.31;100.00
71772;BME280;59606;52.138;5.424;2023-10-31T06:47:25;100063.44;;;9.30;100.00
71772;BME280;59606;52.138;5.424;2023-10-31T06:49:53;100078.22;;;9.29;100.00
71772;BME280;59606;52.138;5.424;2023-10-31T06:52:19;100082.56;;;9.29;100.00
71772;BME280;59606;52.138;5.424;2023-10-31T06:54:46;100083.50;;;9.28;100.00
71772;BME280;59606;52.138;5.424;2023-10-31T06:57:12;100087.84;;;9.27;100.00
71772;BME280;59606;52.138;5.424;2023-10-31T06:59:39;100084.44;;;9.27;100.00
71772;BME280;59606;52.138;5.424;2023-10-31T07:02:05;100083.69;;;9.25;100.00
71772;BME280;59606;52.138;5.424;2023-10-31T07:04:32;100088.88;;;9.25;100.00
71772;BME280;59606;52.138;5.424;2023-10-31T07:06:59;100087.22;;;9.24;100.00
71772;BME280;59606;52.138;5.424;2023-10-31T07:09:26;100095.75;;;9.26;100.00
71772;BME280;59606;52.138;5.424;2023-10-31T07:11:53;100086.19;;;9.26;100.00
71772;BME280;59606;52.138;5.424;2023-10-31T07:14:19;100094.72;;;9.28;100.00
71772;BME280;59606;52.138;5.424;2023-10-31T07:16:47;100096.41;;;9.29;100.00
71772;BME280;59606;52.138;5.424;2023-10-31T07:19:14;100112.72;;;9.31;100.00
71772;BME280;59606;52.138;5.424;2023-10-31T07:21:41;100113.38;;;9.35;100.00
71772;BME280;59606;52.138;5.424;2023-10-31T07:24:09;100107.16;;;9.37;100.00
71772;BME280;59606;52.138;5.424;2023-10-31T07:26:35;100109.56;;;9.40;100.00
71772;BME280;59606;52.138;5.424;2023-10-31T07:29:02;100116.16;;;9.46;100.00
71772;BME280;59606;52.138;5.424;2023-10-31T07:31:28;100109.19;;;9.47;100.00
71772;BME280;59606;52.138;5.424;2023-10-31T07:33:55;100124.59;;;9.50;100.00
71772;BME280;59606;52.138;5.424;2023-10-31T07:36:23;100121.81;;;9.53;100.00
71772;BME280;59606;52.138;5.424;2023-10-31T07:38:49;100128.50;;;9.57;100.00
71772;BME280;59606;52.138;5.424;2023-10-31T07:41:16;100132.69;;;9.59;100.00
71772;BME280;59606;52.138;5.424;2023-10-31T07:43:42;100132.69;;;9.59;100.00
71772;BME280;59606;52.138;5.424;2023-10-31T07:46:09;100132.69;;;9.59;100.00
71772;BME280;59606;52.138;5.424;2023-10-31T07:48:35;100136.19;;;9.58;100.00
71772;BME280;59606;52.138;5.424;2023-10-31T07:51:02;100135.28;;;9.59;100.00
71772;BME280;59606;52.138;5.424;2023-10-31T07:53:29;100137.88;;;9.59;100.00
71772;BME280;59606;52.138;5.424;2023-10-31T07:55:56;100137.59;;;9.64;100.00
71772;BME280;59606;52.138;5.424;2023-10-31T07:58:23;100150.09;;;9.72;100.00
71772;BME280;59606;52.138;5.424;2023-10-31T08:00:49;100155.22;;;9.73;100.00
71772;BME280;59606;52.138;5.424;2023-10-31T08:03:16;100150.03;;;9.73;100.00
71772;BME280;59606;52.138;5.424;2023-10-31T08:05:42;100150.84;;;9.74;100.00
71772;BME280;59606;52.138;5.424;2023-10-31T08:08:09;100153.34;;;9.75;100.00
71772;BME280;59606;52.138;5.424;2023-10-31T08:10:36;100153.34;;;9.75;100.00
71772;BME280;59606;52.138;5.424;2023-10-31T08:13:02;100154.16;;;9.76;100.00
71772;BME280;59606;52.138;5.424;2023-10-31T08:15:29;100152.44;;;9.76;100.00
71772;BME280;59606;52.138;5.424;2023-10-31T08:17:55;100153.16;;;9.78;100.00
71772;BME280;59606;52.138;5.424;2023-10-31T08:20:22;100153.16;;;9.78;100.00
71772;BME280;59606;52.138;5.424;2023-10-31T08:22:48;100160.88;;;9.80;100.00
71772;BME280;59606;52.138;5.424;2023-10-31T08:25:15;100158.09;;;9.83;100.00
71772;BME280;59606;52.138;5.424;2023-10-31T08:27:41;100156.22;;;9.85;100.00
71772;BME280;59606;52.138;5.424;2023-10-31T08:30:08;100162.25;;;9.85;100.00
71772;BME280;59606;52.138;5.424;2023-10-31T08:32:37;100162.25;;;9.85;100.00
71772;BME280;59606;52.138;5.424;2023-10-31T08:35:04;100158.81;;;9.85;100.00
71772;BME280;59606;52.138;5.424;2023-10-31T08:37:31;100169.97;;;9.87;100.00
71772;BME280;59606;52.138;5.424;2023-10-31T08:39:57;100169.47;;;9.95;100.00
71772;BME280;59606;52.138;5.424;2023-10-31T08:42:24;100173.16;;;10.05;100.00
71772;BME280;59606;52.138;5.424;2023-10-31T08:44:50;100172.28;;;10.19;100.00
71772;BME280;59606;52.138;5.424;2023-10-31T08:47:17;100170.78;;;10.29;100.00
71772;BME280;59606;52.138;5.424;2023-10-31T08:49:45;100182.47;;;10.36;100.00
71772;BME280;59606;52.138;5.424;2023-10-31T08:52:11;100185.00;;;10.37;100.00
71772;BME280;59606;52.138;5.424;2023-10-31T08:54:38;100182.91;;;10.43;100.00
71772;BME280;59606;52.138;5.424;2023-10-31T08:57:04;100183.34;;;10.49;100.00
71772;BME280;59606;52.138;5.424;2023-10-31T08:59:31;100185.88;;;10.51;100.00
71772;BME280;59606;52.138;5.424;2023-10-31T09:01:57;100195.28;;;10.53;100.00
71772;BME280;59606;52.138;5.424;2023-10-31T09:04:24;100203.41;;;10.61;100.00
71772;BME280;59606;52.138;5.424;2023-10-31T09:06:50;100206.22;;;10.58;100.00
71772;BME280;59606;52.138;5.424;2023-10-31T09:09:18;100209.13;;;10.54;100.00
71772;BME280;59606;52.138;5.424;2023-10-31T09:11:44;100211.63;;;10.55;100.00
71772;BME280;59606;52.138;5.424;2023-10-31T09:14:11;100218.00;;;10.64;100.00
71772;BME280;59606;52.138;5.424;2023-10-31T09:16:37;100216.78;;;10.70;100.00
71772;BME280;59606;52.138;5.424;2023-10-31T09:19:04;100220.53;;;10.78;100.00
71772;BME280;59606;52.138;5.424;2023-10-31T09:21:30;100227.97;;;10.84;100.00
71772;BME280;59606;52.138;5.424;2023-10-31T09:23:56;100223.91;;;10.93;100.00
71772;BME280;59606;52.138;5.424;2023-10-31T09:26:23;100230.06;;;11.05;100.00
71772;BME280;59606;52.138;5.424;2023-10-31T09:28:50;100231.34;;;11.12;100.00
71772;BME280;59606;52.138;5.424;2023-10-31T09:31:18;100231.66;;;11.20;100.00
71772;BME280;59606;52.138;5.424;2023-10-31T09:33:47;100232.94;;;11.27;100.00
71772;BME280;59606;52.138;5.424;2023-10-31T09:36:14;100231.56;;;11.35;100.00
71772;BME280;59606;52.138;5.424;2023-10-31T09:38:41;100238.88;;;11.42;100.00
71772;BME280;59606;52.138;5.424;2023-10-31T09:41:07;100238.44;;;11.48;100.00
71772;BME280;59606;52.138;5.424;2023-10-31T09:43:34;100243.13;;;11.56;100.00
71772;BME280;59606;52.138;5.424;2023-10-31T09:46:01;100247.53;;;11.68;100.00
71772;BME280;59606;52.138;5.424;2023-10-31T09:48:28;100252.41;;;11.73;100.00
71772;BME280;59606;52.138;5.424;2023-10-31T09:50:55;100250.13;;;11.68;100.00
71772;BME280;59606;52.138;5.424;2023-10-31T09:53:23;100260.16;;;11.62;100.00
71772;BME280;59606;52.138;5.424;2023-10-31T09:55:51;100260.34;;;11.59;100.00
71772;BME280;59606;52.138;5.424;2023-10-31T09:58:20;100258.69;;;11.57;100.00
71772;BME280;59606;52.138;5.424;2023-10-31T10:00:46;100273.19;;;11.62;100.00
71772;BME280;59606;52.138;5.424;2023-10-31T10:03:13;100270.38;;;11.65;100.00
71772;BME280;59606;52.138;5.424;2023-10-31T10:05:40;100264.84;;;11.69;100.00
71772;BME280;59606;52.138;5.424;2023-10-31T10:08:09;100273.50;;;11.83;100.00
71772;BME280;59606;52.138;5.424;2023-10-31T10:10:36;100275.84;;;11.87;100.00
71772;BME280;59606;52.138;5.424;2023-10-31T10:13:02;100280.81;;;11.90;100.00
71772;BME280;59606;52.138;5.424;2023-10-31T10:15:30;100281.75;;;12.02;100.00
71772;BME280;59606;52.138;5.424;2023-10-31T10:17:56;100286.75;;;12.05;100.00
71772;BME280;59606;52.138;5.424;2023-10-31T10:20:23;100278.28;;;12.14;100.00
71772;BME280;59606;52.138;5.424;2023-10-31T10:22:49;100289.44;;;12.16;100.00
71772;BME280;59606;52.138;5.424;2023-10-31T10:25:17;100286.66;;;12.07;100.00
71772;BME280;59606;52.138;5.424;2023-10-31T10:27:47;100298.38;;;12.01;100.00
71772;BME280;59606;52.138;5.424;2023-10-31T10:30:15;100295.22;;;11.96;100.00
71772;BME280;59606;52.138;5.424;2023-10-31T10:32:41;100293.78;;;11.92;100.00
71772;BME280;59606;52.138;5.424;2023-10-31T10:35:08;100297.34;;;11.91;100.00
71772;BME280;59606;52.138;5.424;2023-10-31T10:37:39;100299.41;;;11.98;100.00
71772;BME280;59606;52.138;5.424;2023-10-31T10:40:07;100291.34;;;12.14;100.00
71772;BME280;59606;52.138;5.424;2023-10-31T10:42:45;100294.53;;;12.31;100.00
71772;BME280;59606;52.138;5.424;2023-10-31T10:45:14;100293.78;;;12.41;100.00
71772;BME280;59606;52.138;5.424;2023-10-31T10:47:46;100298.34;;;12.50;100.00
71772;BME280;59606;52.138;5.424;2023-10-31T10:50:13;100295.06;;;12.60;100.00
71772;BME280;59606;52.138;5.424;2023-10-31T10:53:20;100298.03;;;12.55;100.00
71772;BME280;59606;52.138;5.424;2023-10-31T10:55:51;100299.59;;;12.58;100.00
71772;BME280;59606;52.138;5.424;2023-10-31T10:58:27;100304.13;;;12.67;100.00
71772;BME280;59606;52.138;5.424;2023-10-31T11:00:58;100291.81;;;12.69;100.00
71772;BME280;59606;52.138;5.424;2023-10-31T11:03:26;100299.81;;;12.79;100.00
71772;BME280;59606;52.138;5.424;2023-10-31T11:05:54;100303.19;;;12.92;100.00
71772;BME280;59606;52.138;5.424;2023-10-31T11:08:23;100298.00;;;13.03;100.00
71772;BME280;59606;52.138;5.424;2023-10-31T11:10:52;100303.16;;;13.16;100.00
71772;BME280;59606;52.138;5.424;2023-10-31T11:13:22;100291.31;;;13.23;100.00
71772;BME280;59606;52.138;5.424;2023-10-31T11:15:51;100302.41;;;13.27;100.00
71772;BME280;59606;52.138;5.424;2023-10-31T11:18:18;100299.31;;;13.33;100.00
71772;BME280;59606;52.138;5.424;2023-10-31T11:20:46;100308.59;;;13.37;100.00
71772;BME280;59606;52.138;5.424;2023-10-31T11:23:12;100303.38;;;13.37;100.00
71772;BME280;59606;52.138;5.424;2023-10-31T11:25:43;100307.19;;;13.44;100.00
71772;BME280;59606;52.138;5.424;2023-10-31T11:28:15;100310.53;;;13.46;100.00
71772;BME280;59606;52.138;5.424;2023-10-31T11:30:43;100316.34;;;13.38;100.00
71772;BME280;59606;52.138;5.424;2023-10-31T11:33:13;100312.75;;;13.28;100.00
71772;BME280;59606;52.138;5.424;2023-10-31T11:35:40;100315.78;;;13.22;100.00
71772;BME280;59606;52.138;5.424;2023-10-31T11:38:09;100311.09;;;13.14;100.00
71772;BME280;59606;52.138;5.424;2023-10-31T11:41:00;100315.13;;;13.07;100.00
71772;BME280;59606;52.138;5.424;2023-10-31T11:46:23;100321.38;;;12.93;100.00
71772;BME280;59606;52.138;5.424;2023-10-31T11:48:54;100321.72;;;12.89;100.00
71772;BME280;59606;52.138;5.424;2023-10-31T11:51:22;100323.72;;;12.85;100.00
71772;BME280;59606;52.138;5.424;2023-10-31T11:53:49;100333.22;;;12.86;100.00
71772;BME280;59606;52.138;5.424;2023-10-31T11:56:16;100327.03;;;12.87;100.00
71772;BME280;59606;52.138;5.424;2023-10-31T11:58:43;100326.94;;;12.89;100.00
71772;BME280;59606;52.138;5.424;2023-10-31T12:01:10;100329.66;;;12.87;100.00
71772;BME280;59606;52.138;5.424;2023-10-31T12:03:37;100332.41;;;12.86;100.00
71772;BME280;59606;52.138;5.424;2023-10-31T12:06:07;100332.00;;;12.79;100.00
71772;BME280;59606;52.138;5.424;2023-10-31T12:08:38;100334.44;;;12.69;100.00
71772;BME280;59606;52.138;5.424;2023-10-31T12:11:10;100335.72;;;12.64;100.00
71772;BME280;59606;52.138;5.424;2023-10-31T12:13:39;100340.22;;;12.62;100.00
71772;BME280;59606;52.138;5.424;2023-10-31T12:16:09;100339.50;;;12.60;100.00
71772;BME280;59606;52.138;5.424;2023-10-31T12:18:37;100343.16;;;12.57;100.00
71772;BME280;59606;52.138;5.424;2023-10-31T12:21:06;100348.38;;;12.57;100.00
71772;BME280;59606;52.138;5.424;2023-10-31T12:23:35;100349.53;;;12.53;100.00
71772;BME280;59606;52.138;5.424;2023-10-31T12:26:02;100346.22;;;12.51;100.00
71772;BME280;59606;52.138;5.424;2023-10-31T12:28:28;100351.53;;;12.49;100.00
71772;BME280;59606;52.138;5.424;2023-10-31T12:30:55;100355.19;;;12.47;100.00
71772;BME280;59606;52.138;5.424;2023-10-31T12:33:25;100366.81;;;12.43;100.00
71772;BME280;59606;52.138;5.424;2023-10-31T12:35:56;100370.69;;;12.37;100.00
71772;BME280;59606;52.138;5.424;2023-10-31T12:38:24;100366.53;;;12.35;100.00
71772;BME280;59606;52.138;5.424;2023-10-31T12:40:51;100378.63;;;12.36;100.00
71772;BME280;59606;52.138;5.424;2023-10-31T12:43:18;100379.59;;;12.35;100.00
71772;BME280;59606;52.138;5.424;2023-10-31T12:45:45;100378.44;;;12.39;100.00
71772;BME280;59606;52.138;5.424;2023-10-31T12:48:13;100382.91;;;12.37;100.00
71772;BME280;59606;52.138;5.424;2023-10-31T12:50:39;100387.22;;;12.38;100.00
71772;BME280;59606;52.138;5.424;2023-10-31T12:53:06;100394.84;;;12.41;100.00